Time;durP1;ratioP1;P1;durP2;ratioP2;P2;SDS_P1;SDS_P2;PMS_P1;PMS_P2;Temp;Humidity;BMP_temperature;BMP_pressure;BME280_temperature;BME280_humidity;BME280_pressure;Samples;Min_cycle;Max_cycle;Signal;HPM_P1;HPM_P2
2023/07/13 00:00:27;;;;;;;1.98;1.13;;;;;;;;;;5000699;28;20027;-85
2023/07/13 00:02:53;;;;;;;1.58;0.93;;;;;;;;;;5005674;28;20116;-84
2023/07/13 00:05:20;;;;;;;1.98;1.10;;;;;;;;;;4981690;28;20065;-84
2023/07/13 00:07:46;;;;;;;1.42;0.98;;;;;;;;;;4984348;28;20023;-87
2023/07/13 00:10:12;;;;;;;1.55;0.90;;;;;;;;;;4994692;28;20035;-85
2023/07/13 00:12:38;;;;;;;1.95;0.70;;;;;;;;;;5005324;28;20129;-84
2023/07/13 00:15:07;;;;;;;2.13;0.90;;;;;;;;;;4978643;28;20030;-86
2023/07/13 00:17:33;;;;;;;1.98;0.90;;;;;;;;;;4993925;28;20714;-85
2023/07/13 00:19:58;;;;;;;2.03;1.10;;;;;;;;;;4985690;28;20599;-85
2023/07/13 00:22:28;;;;;;;1.75;0.85;;;;;;;;;;5000756;28;20018;-85
2023/07/13 00:24:56;;;;;;;5.38;0.90;;;;;;;;;;4999839;28;20109;-85
2023/07/13 00:27:21;;;;;;;1.50;0.90;;;;;;;;;;4997118;28;20029;-85
2023/07/13 00:29:47;;;;;;;2.97;1.27;;;;;;;;;;5003581;28;20025;-86
2023/07/13 00:32:12;;;;;;;2.65;1.00;;;;;;;;;;4985808;28;20026;-85
2023/07/13 00:34:38;;;;;;;2.58;0.63;;;;;;;;;;4986511;28;20034;-84
2023/07/13 00:37:06;;;;;;;2.35;1.23;;;;;;;;;;4996328;28;20031;-86
2023/07/13 00:39:32;;;;;;;3.70;1.10;;;;;;;;;;4997034;28;20110;-85
2023/07/13 00:41:58;;;;;;;5.82;1.13;;;;;;;;;;5018932;28;20108;-86
2023/07/13 00:44:23;;;;;;;1.63;0.90;;;;;;;;;;4987376;28;20116;-85
2023/07/13 00:46:49;;;;;;;2.67;1.05;;;;;;;;;;5000095;28;20026;-86
2023/07/13 00:49:18;;;;;;;0.98;0.88;;;;;;;;;;5006589;28;20391;-84
2023/07/13 00:51:51;;;;;;;5.72;1.10;;;;;;;;;;4978163;28;20048;-85
2023/07/13 00:54:35;;;;;;;2.47;0.90;;;;;;;;;;4982526;28;20023;-86
2023/07/13 00:57:03;;;;;;;5.30;1.00;;;;;;;;;;4994338;28;20086;-85
2023/07/13 00:59:30;;;;;;;2.17;1.10;;;;;;;;;;4992348;28;20022;-85
2023/07/13 01:01:56;;;;;;;2.97;1.00;;;;;;;;;;4996025;28;20096;-84
2023/07/13 01:04:24;;;;;;;2.92;1.08;;;;;;;;;;5000843;28;20115;-85
2023/07/13 01:06:50;;;;;;;6.22;1.23;;;;;;;;;;4996676;28;20066;-86
2023/07/13 01:09:28;;;;;;;3.80;1.30;;;;;;;;;;4979395;28;20057;-88
2023/07/13 01:11:53;;;;;;;3.67;1.15;;;;;;;;;;4977471;28;20038;-86
2023/07/13 01:14:19;;;;;;;2.97;1.30;;;;;;;;;;5010539;28;20042;-85
2023/07/13 01:16:47;;;;;;;6.35;1.13;;;;;;;;;;5001634;28;20029;-84
2023/07/13 01:19:35;;;;;;;1.52;0.77;;;;;;;;;;4987299;28;20040;-84
2023/07/13 01:22:02;;;;;;;3.92;1.25;;;;;;;;;;5002143;28;20124;-85
2023/07/13 01:24:28;;;;;;;1.15;1.00;;;;;;;;;;4980475;28;20046;-85
2023/07/13 01:26:54;;;;;;;1.35;1.10;;;;;;;;;;4989962;28;20030;-85
2023/07/13 01:29:20;;;;;;;2.55;0.73;;;;;;;;;;4992538;28;20027;-84
2023/07/13 01:31:46;;;;;;;2.75;1.30;;;;;;;;;;4974213;28;20477;-86
2023/07/13 01:34:11;;;;;;;3.00;1.10;;;;;;;;;;4998290;28;20497;-85
2023/07/13 01:36:36;;;;;;;3.65;0.93;;;;;;;;;;4985641;28;20472;-87
2023/07/13 01:39:03;;;;;;;1.75;1.08;;;;;;;;;;4980796;28;20037;-84
2023/07/13 01:41:28;;;;;;;4.35;1.20;;;;;;;;;;4979520;28;20027;-84
2023/07/13 01:43:54;;;;;;;1.85;0.90;;;;;;;;;;4979851;28;20027;-85
2023/07/13 01:46:19;;;;;;;3.22;1.33;;;;;;;;;;4967214;28;20010;-85
2023/07/13 01:48:44;;;;;;;3.45;0.93;;;;;;;;;;4989582;28;20480;-85
2023/07/13 01:51:10;;;;;;;3.90;1.10;;;;;;;;;;4993956;28;20571;-85
2023/07/13 01:53:36;;;;;;;2.05;1.75;;;;;;;;;;5001363;28;20368;-83
2023/07/13 01:56:02;;;;;;;2.60;1.15;;;;;;;;;;4995801;28;20349;-82
2023/07/13 01:58:27;;;;;;;2.53;0.93;;;;;;;;;;4974533;28;20029;-81
2023/07/13 02:00:52;;;;;;;1.35;1.10;;;;;;;;;;5000932;28;20113;-83
2023/07/13 02:03:19;;;;;;;1.17;0.90;;;;;;;;;;5009851;28;20659;-84
2023/07/13 02:05:45;;;;;;;1.02;0.80;;;;;;;;;;4995982;28;20030;-83
2023/07/13 02:08:10;;;;;;;2.20;0.85;;;;;;;;;;4997571;28;20440;-84
2023/07/13 02:10:37;;;;;;;7.45;1.48;;;;;;;;;;5000761;28;20030;-85
2023/07/13 02:13:05;;;;;;;4.90;1.52;;;;;;;;;;4995475;28;20035;-85
2023/07/13 02:15:31;;;;;;;5.88;1.02;;;;;;;;;;4987879;28;20591;-86
2023/07/13 02:17:58;;;;;;;2.33;1.38;;;;;;;;;;4996322;28;20504;-86
2023/07/13 02:20:24;;;;;;;2.45;1.08;;;;;;;;;;4980373;28;20117;-85
2023/07/13 02:22:49;;;;;;;2.13;1.20;;;;;;;;;;4982760;28;20058;-84
2023/07/13 02:25:15;;;;;;;10.32;1.45;;;;;;;;;;4990932;28;20026;-85
2023/07/13 02:27:40;;;;;;;4.50;1.33;;;;;;;;;;5001816;28;20089;-85
2023/07/13 02:30:07;;;;;;;1.75;0.98;;;;;;;;;;4983882;28;20035;-84
2023/07/13 02:32:33;;;;;;;2.53;1.05;;;;;;;;;;5014474;28;20020;-84
2023/07/13 02:34:59;;;;;;;1.88;1.10;;;;;;;;;;4994433;28;20104;-86
2023/07/13 02:37:24;;;;;;;1.65;1.17;;;;;;;;;;5011832;28;20460;-85
2023/07/13 02:39:49;;;;;;;6.28;1.10;;;;;;;;;;5003040;28;20102;-86
2023/07/13 02:42:15;;;;;;;4.18;1.10;;;;;;;;;;5021752;28;20034;-84
2023/07/13 02:44:40;;;;;;;2.95;1.23;;;;;;;;;;4999993;28;20049;-85
2023/07/13 02:47:06;;;;;;;3.25;1.20;;;;;;;;;;5008423;28;20091;-85
2023/07/13 02:49:32;;;;;;;2.05;0.90;;;;;;;;;;5006970;28;20085;-84
2023/07/13 02:51:57;;;;;;;1.60;0.90;;;;;;;;;;4982748;28;20038;-86
2023/07/13 02:54:22;;;;;;;3.08;1.20;;;;;;;;;;4993028;28;20035;-85
2023/07/13 02:56:48;;;;;;;4.10;1.00;;;;;;;;;;4991480;28;20034;-84
2023/07/13 02:59:13;;;;;;;6.50;1.38;;;;;;;;;;5002574;28;20033;-85
2023/07/13 03:01:39;;;;;;;1.02;1.00;;;;;;;;;;4969848;28;20026;-86
2023/07/13 03:04:05;;;;;;;3.75;1.20;;;;;;;;;;4991447;28;20027;-85
2023/07/13 03:06:31;;;;;;;2.83;1.20;;;;;;;;;;4975658;28;20462;-85
2023/07/13 03:08:57;;;;;;;1.05;0.93;;;;;;;;;;4984709;28;20038;-86
2023/07/13 03:11:22;;;;;;;2.17;1.35;;;;;;;;;;4982591;28;20027;-85
2023/07/13 03:13:48;;;;;;;3.45;1.42;;;;;;;;;;4996950;28;20054;-85
2023/07/13 03:16:15;;;;;;;3.35;1.23;;;;;;;;;;4992842;28;20065;-86
2023/07/13 03:18:41;;;;;;;2.78;1.33;;;;;;;;;;4995730;28;20030;-85
2023/07/13 03:21:07;;;;;;;1.75;1.50;;;;;;;;;;4971590;28;20030;-86
2023/07/13 03:23:32;;;;;;;1.75;1.08;;;;;;;;;;4995708;28;20026;-84
2023/07/13 03:26:06;;;;;;;4.68;1.33;;;;;;;;;;4978294;28;20050;-85
2023/07/13 03:28:32;;;;;;;8.55;1.35;;;;;;;;;;5007788;28;20162;-84
2023/07/13 03:31:03;;;;;;;2.97;1.40;;;;;;;;;;5004284;28;20062;-86
2023/07/13 03:33:29;;;;;;;1.13;0.95;;;;;;;;;;5001578;28;20081;-85
2023/07/13 03:35:55;;;;;;;2.72;1.52;;;;;;;;;;5007812;28;20161;-85
2023/07/13 03:38:21;;;;;;;5.13;1.25;;;;;;;;;;4994119;28;20034;-85
2023/07/13 03:40:46;;;;;;;4.25;1.30;;;;;;;;;;4998033;28;20027;-86
2023/07/13 03:43:11;;;;;;;2.60;1.15;;;;;;;;;;4985868;28;20037;-85
2023/07/13 03:45:40;;;;;;;3.03;1.38;;;;;;;;;;5001433;28;20030;-85
2023/07/13 03:48:06;;;;;;;3.20;1.40;;;;;;;;;;5025843;28;20034;-84
2023/07/13 03:50:31;;;;;;;2.83;1.30;;;;;;;;;;4987191;28;20399;-86
2023/07/13 03:52:58;;;;;;;3.08;1.30;;;;;;;;;;5007112;28;20037;-85
2023/07/13 03:55:23;;;;;;;5.50;1.25;;;;;;;;;;4998914;28;20487;-85
2023/07/13 03:57:57;;;;;;;4.25;1.30;;;;;;;;;;5001608;28;20485;-84
2023/07/13 04:00:23;;;;;;;3.33;1.30;;;;;;;;;;5001696;28;20034;-85
2023/07/13 04:02:49;;;;;;;2.55;1.40;;;;;;;;;;5002559;28;20031;-84
2023/07/13 04:05:15;;;;;;;7.20;1.58;;;;;;;;;;4983941;28;20424;-84
2023/07/13 04:07:40;;;;;;;3.30;1.40;;;;;;;;;;4999121;28;20644;-85
2023/07/13 04:10:06;;;;;;;4.53;1.40;;;;;;;;;;4981742;28;20018;-85
2023/07/13 04:12:31;;;;;;;4.72;1.25;;;;;;;;;;5009789;28;20021;-86
2023/07/13 04:14:57;;;;;;;2.08;1.15;;;;;;;;;;4979711;28;20027;-84
2023/07/13 04:17:22;;;;;;;2.33;1.27;;;;;;;;;;4988923;28;20565;-85
2023/07/13 04:19:48;;;;;;;9.43;1.25;;;;;;;;;;4992930;28;20503;-86
2023/07/13 04:22:14;;;;;;;3.50;1.10;;;;;;;;;;4998081;28;20026;-84
2023/07/13 04:24:39;;;;;;;2.22;1.10;;;;;;;;;;4993643;28;20404;-86
2023/07/13 04:27:05;;;;;;;3.88;1.10;;;;;;;;;;4992094;28;20084;-84
2023/07/13 04:29:30;;;;;;;3.70;1.08;;;;;;;;;;4970963;28;20078;-84
2023/07/13 04:31:55;;;;;;;2.85;1.17;;;;;;;;;;4998077;28;20090;-85
2023/07/13 04:34:21;;;;;;;1.70;0.95;;;;;;;;;;4987154;28;20026;-84
2023/07/13 04:36:46;;;;;;;0.90;0.90;;;;;;;;;;5005298;28;20526;-84
2023/07/13 04:39:11;;;;;;;4.05;1.40;;;;;;;;;;5002841;28;20444;-85
2023/07/13 04:41:37;;;;;;;1.75;1.10;;;;;;;;;;4999073;28;20017;-86
2023/07/13 04:44:02;;;;;;;3.17;1.23;;;;;;;;;;4991795;28;20026;-85
2023/07/13 04:46:28;;;;;;;7.18;1.33;;;;;;;;;;4986051;28;20744;-85
2023/07/13 04:48:54;;;;;;;1.40;1.00;;;;;;;;;;4974678;28;20073;-85
2023/07/13 04:51:19;;;;;;;4.38;0.93;;;;;;;;;;4991917;28;20427;-85
2023/07/13 04:53:45;;;;;;;4.80;1.40;;;;;;;;;;5003151;28;20026;-85
2023/07/13 04:56:10;;;;;;;3.35;1.30;;;;;;;;;;5001100;28;20074;-84
2023/07/13 04:58:35;;;;;;;3.30;1.15;;;;;;;;;;4978992;28;20029;-84
2023/07/13 05:01:03;;;;;;;3.97;1.25;;;;;;;;;;5000732;28;20109;-82
2023/07/13 05:03:28;;;;;;;3.38;1.08;;;;;;;;;;4991117;28;20108;-83
2023/07/13 05:06:03;;;;;;;4.78;1.20;;;;;;;;;;4994525;28;20058;-85
2023/07/13 05:08:29;;;;;;;3.67;1.08;;;;;;;;;;4999658;28;20089;-84
2023/07/13 05:10:54;;;;;;;1.52;1.00;;;;;;;;;;5001556;28;20038;-84
2023/07/13 05:13:20;;;;;;;1.40;1.30;;;;;;;;;;4997390;28;20026;-85
2023/07/13 05:15:47;;;;;;;6.50;1.83;;;;;;;;;;5006155;28;20042;-84
2023/07/13 05:18:12;;;;;;;6.10;1.40;;;;;;;;;;4999310;28;20017;-85
2023/07/13 05:20:37;;;;;;;4.63;1.48;;;;;;;;;;5003187;28;20081;-86
2023/07/13 05:23:03;;;;;;;5.68;1.70;;;;;;;;;;4993693;28;20034;-85
2023/07/13 05:25:28;;;;;;;7.13;1.60;;;;;;;;;;5003767;28;20244;-86
2023/07/13 05:27:53;;;;;;;5.63;1.73;;;;;;;;;;4998231;28;20034;-84
2023/07/13 05:30:19;;;;;;;4.47;1.60;;;;;;;;;;4994700;28;20033;-84
2023/07/13 05:32:45;;;;;;;3.38;1.55;;;;;;;;;;4994617;28;20421;-86
2023/07/13 05:35:11;;;;;;;5.53;1.30;;;;;;;;;;4987592;28;20031;-84
2023/07/13 05:37:37;;;;;;;3.03;1.10;;;;;;;;;;4983239;28;20092;-85
2023/07/13 05:40:03;;;;;;;2.72;1.27;;;;;;;;;;4981399;28;20058;-84
2023/07/13 05:42:31;;;;;;;5.38;1.40;;;;;;;;;;5002541;28;20041;-84
2023/07/13 05:44:56;;;;;;;5.53;1.63;;;;;;;;;;4991261;28;20033;-85
2023/07/13 05:47:21;;;;;;;3.38;1.42;;;;;;;;;;4985465;28;20026;-86
2023/07/13 05:49:47;;;;;;;1.42;0.90;;;;;;;;;;5000169;28;20137;-85
2023/07/13 05:52:12;;;;;;;4.05;1.67;;;;;;;;;;4990048;28;20042;-84
2023/07/13 05:54:37;;;;;;;2.97;1.20;;;;;;;;;;4993252;28;20034;-84
2023/07/13 05:57:03;;;;;;;3.30;1.25;;;;;;;;;;4996275;28;20081;-85
2023/07/13 05:59:28;;;;;;;1.77;1.33;;;;;;;;;;5008590;28;20022;-84
2023/07/13 06:01:53;;;;;;;2.90;1.38;;;;;;;;;;4980477;28;20041;-84
2023/07/13 06:04:19;;;;;;;7.05;1.60;;;;;;;;;;4988361;28;20081;-84
2023/07/13 06:06:45;;;;;;;2.78;1.98;;;;;;;;;;5005398;28;20391;-84
2023/07/13 06:09:10;;;;;;;4.53;1.33;;;;;;;;;;4982226;28;20532;-85
2023/07/13 06:11:36;;;;;;;3.42;1.20;;;;;;;;;;4984552;28;20042;-82
2023/07/13 06:14:01;;;;;;;3.28;1.10;;;;;;;;;;5000485;28;20037;-82
2023/07/13 06:16:27;;;;;;;2.80;1.10;;;;;;;;;;4997323;28;20034;-82
2023/07/13 06:18:52;;;;;;;4.20;1.33;;;;;;;;;;4979269;28;20030;-82
2023/07/13 06:21:19;;;;;;;6.28;1.42;;;;;;;;;;4989462;28;20014;-83
2023/07/13 06:23:49;;;;;;;1.85;1.10;;;;;;;;;;5004001;28;20022;-82
2023/07/13 06:26:15;;;;;;;4.32;1.60;;;;;;;;;;4991751;28;20039;-82
2023/07/13 06:28:40;;;;;;;7.00;1.20;;;;;;;;;;4993618;28;20439;-82
2023/07/13 06:31:08;;;;;;;5.95;1.48;;;;;;;;;;5001558;28;20476;-83
2023/07/13 06:33:33;;;;;;;2.92;1.10;;;;;;;;;;5004695;28;20049;-82
2023/07/13 06:35:59;;;;;;;4.28;1.73;;;;;;;;;;4977732;28;20050;-82
2023/07/13 06:38:24;;;;;;;6.50;1.42;;;;;;;;;;5001126;28;20058;-84
2023/07/13 06:40:49;;;;;;;2.15;1.20;;;;;;;;;;4980311;28;20030;-84
2023/07/13 06:46:36;;;;;;;2.30;1.15;;;;;;;;;;4985959;28;20064;-83
2023/07/13 06:49:02;;;;;;;3.95;1.20;;;;;;;;;;4990983;28;20022;-83
2023/07/13 06:51:27;;;;;;;4.85;1.10;;;;;;;;;;4981842;28;20026;-83
2023/07/13 06:53:54;;;;;;;2.65;1.10;;;;;;;;;;4999325;28;20036;-83
2023/07/13 06:56:19;;;;;;;3.95;1.50;;;;;;;;;;5004769;28;20202;-84
2023/07/13 06:58:44;;;;;;;4.97;1.38;;;;;;;;;;4984057;28;20099;-84
2023/07/13 07:01:10;;;;;;;2.47;1.00;;;;;;;;;;4997946;28;20117;-84
2023/07/13 07:03:35;;;;;;;3.15;0.88;;;;;;;;;;5013873;28;20056;-84
2023/07/13 07:06:24;;;;;;;4.38;1.20;;;;;;;;;;4995206;28;20022;-83
2023/07/13 07:08:51;;;;;;;5.32;1.00;;;;;;;;;;4997476;28;20559;-83
2023/07/13 07:11:22;;;;;;;2.05;1.17;;;;;;;;;;5004240;28;20065;-84
2023/07/13 07:13:48;;;;;;;6.28;1.25;;;;;;;;;;4998141;28;20030;-83
2023/07/13 07:16:14;;;;;;;3.08;1.30;;;;;;;;;;4991461;28;20026;-84
2023/07/13 07:18:39;;;;;;;7.30;1.30;;;;;;;;;;4993044;28;20036;-85
2023/07/13 07:21:05;;;;;;;2.15;0.85;;;;;;;;;;4998571;28;20034;-83
2023/07/13 07:23:30;;;;;;;3.85;1.15;;;;;;;;;;5013715;28;20025;-83
2023/07/13 07:25:55;;;;;;;2.45;1.33;;;;;;;;;;4997841;28;20045;-84
2023/07/13 07:28:21;;;;;;;5.15;1.55;;;;;;;;;;4994071;28;20089;-84
2023/07/13 07:30:47;;;;;;;3.30;1.20;;;;;;;;;;4991057;28;20085;-83
2023/07/13 07:33:13;;;;;;;2.90;1.25;;;;;;;;;;5013447;28;20025;-84
2023/07/13 07:35:39;;;;;;;4.00;1.50;;;;;;;;;;4977540;28;20072;-84
2023/07/13 07:38:04;;;;;;;3.35;1.15;;;;;;;;;;4997487;28;20061;-84
2023/07/13 07:40:31;;;;;;;1.15;0.95;;;;;;;;;;4982573;28;20022;-84
2023/07/13 07:42:56;;;;;;;1.27;0.85;;;;;;;;;;4997118;28;20026;-84
2023/07/13 07:45:21;;;;;;;2.97;1.10;;;;;;;;;;5005600;28;20037;-84
2023/07/13 07:47:47;;;;;;;1.50;1.00;;;;;;;;;;4976524;28;20026;-84
2023/07/13 07:50:13;;;;;;;1.63;1.05;;;;;;;;;;4994961;28;20542;-84
2023/07/13 07:52:38;;;;;;;1.60;0.95;;;;;;;;;;4995505;28;20436;-84
2023/07/13 07:55:05;;;;;;;1.98;0.93;;;;;;;;;;4990565;28;20065;-84
2023/07/13 07:57:31;;;;;;;2.83;0.88;;;;;;;;;;4990634;28;20035;-84
2023/07/13 07:59:56;;;;;;;3.75;0.90;;;;;;;;;;4994955;28;20030;-83
2023/07/13 08:02:21;;;;;;;0.82;0.70;;;;;;;;;;5008917;28;20025;-84
2023/07/13 08:04:47;;;;;;;2.28;1.25;;;;;;;;;;4993604;28;20022;-84
2023/07/13 08:07:12;;;;;;;1.70;1.13;;;;;;;;;;4970077;28;20030;-84
2023/07/13 08:09:38;;;;;;;2.90;0.98;;;;;;;;;;4985557;28;20026;-83
2023/07/13 08:12:04;;;;;;;1.10;0.90;;;;;;;;;;4978346;28;20034;-84
2023/07/13 08:14:29;;;;;;;3.78;1.08;;;;;;;;;;5004414;28;20027;-84
2023/07/13 08:16:54;;;;;;;3.85;1.05;;;;;;;;;;4997758;28;20100;-83
2023/07/13 08:19:20;;;;;;;0.95;0.82;;;;;;;;;;4998204;28;20105;-84
2023/07/13 08:21:48;;;;;;;7.45;1.00;;;;;;;;;;5005962;28;20026;-82
2023/07/13 08:24:13;;;;;;;4.80;1.30;;;;;;;;;;4996028;28;20031;-82
2023/07/13 08:26:39;;;;;;;1.27;0.80;;;;;;;;;;4971019;28;20026;-82
2023/07/13 08:29:04;;;;;;;4.38;0.90;;;;;;;;;;4979522;28;20049;-83
2023/07/13 08:31:29;;;;;;;2.67;0.80;;;;;;;;;;5000251;28;20301;-82
2023/07/13 08:33:55;;;;;;;3.88;0.82;;;;;;;;;;4982722;28;20501;-83
2023/07/13 08:36:20;;;;;;;3.65;1.02;;;;;;;;;;4993472;28;20396;-85
2023/07/13 08:38:45;;;;;;;0.93;0.88;;;;;;;;;;4987405;28;20258;-85
2023/07/13 08:41:17;;;;;;;2.78;1.20;;;;;;;;;;4992383;28;20030;-81
2023/07/13 08:43:46;;;;;;;3.15;0.88;;;;;;;;;;5008178;28;20017;-82
2023/07/13 08:46:20;;;;;;;3.88;1.20;;;;;;;;;;4977848;28;20046;-83
2023/07/13 08:48:55;;;;;;;1.90;0.93;;;;;;;;;;4986297;28;20500;-81
2023/07/13 08:51:47;;;;;;;2.38;1.00;;;;;;;;;;5007341;28;20498;-83
2023/07/13 08:54:31;;;;;;;3.80;1.23;;;;;;;;;;5010825;28;20022;-89
2023/07/13 08:56:59;;;;;;;2.22;1.17;;;;;;;;;;4994146;28;20023;-83
2023/07/13 08:59:28;;;;;;;2.75;1.30;;;;;;;;;;5001269;28;20050;-82
2023/07/13 09:01:59;;;;;;;2.05;1.08;;;;;;;;;;4995204;28;20033;-84
2023/07/13 09:04:36;;;;;;;8.50;1.20;;;;;;;;;;4995048;28;20086;-81
2023/07/13 09:07:16;;;;;;;4.15;1.08;;;;;;;;;;4996784;28;20045;-81
2023/07/13 09:09:52;;;;;;;2.20;0.85;;;;;;;;;;4978972;28;20084;-83
2023/07/13 09:12:35;;;;;;;4.18;1.35;;;;;;;;;;4995588;28;20466;-84
2023/07/13 09:15:04;;;;;;;10.10;2.85;;;;;;;;;;5004842;28;20029;-85
2023/07/13 09:17:38;;;;;;;1.17;0.98;;;;;;;;;;4990068;28;20034;-83
2023/07/13 09:20:22;;;;;;;3.47;1.20;;;;;;;;;;4994288;28;20041;-83
2023/07/13 09:22:48;;;;;;;2.30;1.17;;;;;;;;;;4979124;28;20033;-83
2023/07/13 09:25:30;;;;;;;1.55;1.00;;;;;;;;;;4993802;28;20022;-83
2023/07/13 09:28:00;;;;;;;6.75;1.02;;;;;;;;;;4995251;28;20046;-84
2023/07/13 09:30:37;;;;;;;5.63;1.20;;;;;;;;;;5007935;28;20036;-83
2023/07/13 09:33:04;;;;;;;7.57;1.30;;;;;;;;;;5005284;28;20033;-84
2023/07/13 09:35:30;;;;;;;2.63;1.02;;;;;;;;;;4984647;28;20030;-82
2023/07/13 09:38:12;;;;;;;4.75;1.42;;;;;;;;;;4993639;28;20030;-85
2023/07/13 09:41:00;;;;;;;1.75;1.27;;;;;;;;;;4987705;28;20121;-84
2023/07/13 09:43:28;;;;;;;1.23;0.90;;;;;;;;;;5006628;28;20120;-85
2023/07/13 09:45:55;;;;;;;1.90;0.95;;;;;;;;;;4996437;28;20102;-83
2023/07/13 09:48:20;;;;;;;3.72;1.15;;;;;;;;;;5000524;28;20046;-82
2023/07/13 09:50:46;;;;;;;4.90;1.25;;;;;;;;;;4987907;28;20163;-84
2023/07/13 09:53:14;;;;;;;5.55;1.52;;;;;;;;;;4975602;28;20027;-82
2023/07/13 09:55:42;;;;;;;4.30;1.08;;;;;;;;;;4974644;28;21098;-83
2023/07/13 09:58:15;;;;;;;2.28;1.17;;;;;;;;;;4975583;28;20397;-81
2023/07/13 10:00:43;;;;;;;1.33;0.73;;;;;;;;;;4998114;28;20026;-82
2023/07/13 10:03:21;;;;;;;4.68;1.27;;;;;;;;;;4997777;28;20025;-81
2023/07/13 10:05:50;;;;;;;2.03;1.20;;;;;;;;;;5006568;28;20022;-81
2023/07/13 10:08:35;;;;;;;4.32;1.30;;;;;;;;;;4978004;28;20026;-81
2023/07/13 10:11:12;;;;;;;1.95;1.10;;;;;;;;;;4995480;28;20033;-82
2023/07/13 10:13:52;;;;;;;1.92;1.08;;;;;;;;;;5002958;28;20026;-82
2023/07/13 10:16:18;;;;;;;4.18;1.20;;;;;;;;;;4996431;28;20074;-81
2023/07/13 10:18:50;;;;;;;1.77;1.00;;;;;;;;;;4986844;28;20029;-82
2023/07/13 10:21:21;;;;;;;7.40;1.23;;;;;;;;;;4994888;28;20044;-82
2023/07/13 10:23:51;;;;;;;2.65;1.33;;;;;;;;;;4994001;28;20526;-82
2023/07/13 10:26:22;;;;;;;4.90;1.27;;;;;;;;;;5001122;28;20041;-81
2023/07/13 10:28:55;;;;;;;1.95;1.17;;;;;;;;;;4992370;28;20026;-81
2023/07/13 10:31:21;;;;;;;1.90;0.90;;;;;;;;;;5009597;28;20034;-81
2023/07/13 10:33:46;;;;;;;2.15;1.08;;;;;;;;;;4989678;28;20392;-82
2023/07/13 10:36:14;;;;;;;7.63;1.17;;;;;;;;;;4999330;28;20058;-82
2023/07/13 10:38:40;;;;;;;1.95;0.90;;;;;;;;;;4994474;28;20065;-82
2023/07/13 10:41:11;;;;;;;2.17;1.00;;;;;;;;;;4987600;28;20170;-81
2023/07/13 10:43:43;;;;;;;1.37;0.83;;;;;;;;;;5012650;28;20026;-82
2023/07/13 10:46:12;;;;;;;2.80;0.80;;;;;;;;;;5007787;28;20380;-82
2023/07/13 10:48:39;;;;;;;3.67;1.15;;;;;;;;;;4987073;28;20021;-82
2023/07/13 10:51:07;;;;;;;5.70;1.73;;;;;;;;;;5007036;28;20436;-82
2023/07/13 10:53:36;;;;;;;1.38;1.00;;;;;;;;;;5011270;28;20026;-81
2023/07/13 10:56:18;;;;;;;4.28;1.33;;;;;;;;;;4978910;28;20022;-81
2023/07/13 10:58:45;;;;;;;2.03;1.00;;;;;;;;;;4973560;28;20085;-82
2023/07/13 11:01:18;;;;;;;3.50;1.33;;;;;;;;;;5000407;28;20025;-81
2023/07/13 11:03:43;;;;;;;3.53;1.10;;;;;;;;;;4989385;28;20041;-81
2023/07/13 11:06:15;;;;;;;1.98;1.00;;;;;;;;;;4998090;28;20018;-81
2023/07/13 11:08:46;;;;;;;;;;;;;;;;;;5006604;28;20021;-82
2023/07/13 11:11:23;;;;;;;2.75;1.30;;;;;;;;;;4988781;28;19910;-82
2023/07/13 11:13:48;;;;;;;1.15;0.85;;;;;;;;;;5002812;28;20022;-81
2023/07/13 11:16:35;;;;;;;2.97;1.20;;;;;;;;;;4979809;28;20037;-82
2023/07/13 11:19:03;;;;;;;4.53;1.10;;;;;;;;;;4994757;28;20105;-81
2023/07/13 11:21:30;;;;;;;2.30;1.10;;;;;;;;;;5005620;28;20244;-81
2023/07/13 11:24:16;;;;;;;2.55;1.17;;;;;;;;;;5010382;28;20157;-82
2023/07/13 11:26:43;;;;;;;2.75;1.10;;;;;;;;;;4981768;28;20065;-82
2023/07/13 11:29:31;;;;;;;3.67;1.23;;;;;;;;;;5005430;28;20439;-81
2023/07/13 11:31:59;;;;;;;3.30;1.10;;;;;;;;;;4975351;28;20048;-81
2023/07/13 11:34:35;;;;;;;1.30;0.85;;;;;;;;;;5000761;28;20037;-81
2023/07/13 11:37:01;;;;;;;3.28;1.30;;;;;;;;;;4975898;28;20035;-81
2023/07/13 11:39:40;;;;;;;3.53;1.30;;;;;;;;;;4981920;28;20026;-81
2023/07/13 11:42:12;;;;;;;2.08;0.73;;;;;;;;;;4996116;28;20038;-80
2023/07/13 11:44:41;;;;;;;;;;;;;;;;;;5003603;28;20023;-82
2023/07/13 11:47:14;;;;;;;4.35;1.27;;;;;;;;;;4990532;28;19964;-81
2023/07/13 11:49:48;;;;;;;2.45;1.20;;;;;;;;;;4974974;28;20539;-81
2023/07/13 11:52:17;;;;;;;1.20;1.10;;;;;;;;;;4978247;28;20046;-81
2023/07/13 11:54:55;;;;;;;2.50;1.25;;;;;;;;;;4991789;28;20018;-81
2023/07/13 11:57:37;;;;;;;2.35;1.10;;;;;;;;;;4992484;28;20026;-82
2023/07/13 12:00:31;;;;;;;3.97;1.10;;;;;;;;;;4981184;28;20133;-80
2023/07/13 12:03:00;;;;;;;1.60;0.93;;;;;;;;;;4974448;28;20030;-80
2023/07/13 12:05:26;;;;;;;3.03;1.25;;;;;;;;;;4997252;28;20030;-81
2023/07/13 12:07:51;;;;;;;2.42;1.02;;;;;;;;;;4993687;28;20531;-81
2023/07/13 12:10:28;;;;;;;5.65;1.20;;;;;;;;;;4992305;28;20042;-81
2023/07/13 12:13:04;;;;;;;2.60;1.00;;;;;;;;;;4990200;28;20037;-80
2023/07/13 12:15:42;;;;;;;2.88;1.08;;;;;;;;;;4978122;28;20025;-84
2023/07/13 12:18:23;;;;;;;4.43;1.70;;;;;;;;;;4971760;28;20023;-84
2023/07/13 12:20:52;;;;;;;2.40;1.30;;;;;;;;;;4990243;28;20109;-85
2023/07/13 12:23:25;;;;;;;2.25;1.00;;;;;;;;;;5008761;28;20022;-84
2023/07/13 12:25:51;;;;;;;1.70;1.08;;;;;;;;;;4997470;28;20086;-85
2023/07/13 12:28:43;;;;;;;2.95;1.65;;;;;;;;;;4997523;28;20058;-85
2023/07/13 12:31:36;;;;;;;4.80;1.00;;;;;;;;;;5005376;28;20026;-85
2023/07/13 12:34:15;;;;;;;3.38;1.38;;;;;;;;;;4998240;28;20038;-87
2023/07/13 12:36:50;;;;;;;6.40;1.00;;;;;;;;;;4971763;28;20117;-87
2023/07/13 12:39:20;;;;;;;1.58;1.13;;;;;;;;;;5004899;28;20042;-87
2023/07/13 12:41:47;;;;;;;5.68;1.40;;;;;;;;;;4994848;28;20042;-87
2023/07/13 12:44:20;;;;;;;3.95;1.20;;;;;;;;;;4982816;28;20618;-86
2023/07/13 12:47:04;;;;;;;3.22;1.17;;;;;;;;;;4980345;28;20205;-87
2023/07/13 12:49:34;;;;;;;1.75;1.10;;;;;;;;;;4981793;28;20396;-86
2023/07/13 12:52:04;;;;;;;4.40;1.02;;;;;;;;;;4974496;28;20073;-86
2023/07/13 12:54:30;;;;;;;3.80;1.50;;;;;;;;;;5003609;28;20085;-86
2023/07/13 12:56:59;;;;;;;2.30;0.98;;;;;;;;;;4999008;28;20108;-87
2023/07/13 12:59:28;;;;;;;2.13;1.10;;;;;;;;;;5001537;28;20085;-88
2023/07/13 13:01:54;;;;;;;2.95;1.13;;;;;;;;;;4984578;28;20015;-88
2023/07/13 13:04:21;;;;;;;5.47;1.67;;;;;;;;;;4997457;28;20041;-87
2023/07/13 13:07:00;;;;;;;2.40;1.25;;;;;;;;;;5009921;28;20018;-87
2023/07/13 13:09:25;;;;;;;2.88;1.08;;;;;;;;;;5005255;28;20109;-87
2023/07/13 13:11:52;;;;;;;2.88;1.38;;;;;;;;;;4976034;28;20076;-87
2023/07/13 13:14:17;;;;;;;1.02;0.93;;;;;;;;;;4976057;28;20092;-87
2023/07/13 13:16:49;;;;;;;4.68;1.17;;;;;;;;;;4980532;28;20026;-86
2023/07/13 13:19:21;;;;;;;3.35;1.42;;;;;;;;;;4996196;28;20022;-88
2023/07/13 13:21:47;;;;;;;2.17;1.33;;;;;;;;;;4996080;28;20151;-87
2023/07/13 13:27:34;;;;;;;4.90;1.15;;;;;;;;;;4994082;28;20095;-87
2023/07/13 13:30:00;;;;;;;3.80;1.50;;;;;;;;;;4990542;28;20063;-88
2023/07/13 13:32:25;;;;;;;5.35;1.17;;;;;;;;;;4985289;28;20042;-87
2023/07/13 13:34:51;;;;;;;3.30;1.20;;;;;;;;;;4999613;28;20022;-87
2023/07/13 13:40:44;;;;;;;4.20;1.38;;;;;;;;;;4994601;28;20041;-85
2023/07/13 13:43:27;;;;;;;2.08;0.98;;;;;;;;;;5002261;28;20032;-86
2023/07/13 13:46:47;;;;;;;2.03;0.95;;;;;;;;;;4963082;28;20058;-84
2023/07/13 13:49:31;;;;;;;1.10;0.90;;;;;;;;;;4978781;28;20030;-84
2023/07/13 13:52:45;;;;;;;0.77;0.75;;;;;;;;;;5003580;28;20031;-86
2023/07/13 13:55:18;;;;;;;1.55;1.05;;;;;;;;;;4976304;28;20061;-86
2023/07/13 13:57:45;;;;;;;1.80;1.00;;;;;;;;;;5003400;28;20028;-85
2023/07/13 14:00:14;;;;;;;2.95;0.93;;;;;;;;;;4981954;28;20022;-87
2023/07/13 14:02:41;;;;;;;1.40;0.93;;;;;;;;;;4984717;28;20018;-86
2023/07/13 14:05:12;;;;;;;0.90;0.90;;;;;;;;;;4986136;28;20048;-86
2023/07/13 14:07:38;;;;;;;3.92;1.10;;;;;;;;;;4967938;28;20022;-87
2023/07/13 14:10:14;;;;;;;2.95;1.08;;;;;;;;;;4985963;28;20082;-87
2023/07/13 14:12:42;;;;;;;1.88;1.08;;;;;;;;;;4990873;28;20022;-85
2023/07/13 14:15:17;;;;;;;2.05;0.90;;;;;;;;;;4991305;28;20101;-86
2023/07/13 14:17:43;;;;;;;2.25;1.13;;;;;;;;;;4969188;28;20603;-85
2023/07/13 14:20:12;;;;;;;1.20;1.10;;;;;;;;;;4983810;28;20036;-87
2023/07/13 14:22:37;;;;;;;1.30;0.63;;;;;;;;;;4998793;28;20409;-86
2023/07/13 14:25:03;;;;;;;1.08;0.90;;;;;;;;;;4999708;28;20014;-85
2023/07/13 14:27:29;;;;;;;1.73;1.00;;;;;;;;;;4980531;28;20027;-87
2023/07/13 14:29:54;;;;;;;2.22;0.93;;;;;;;;;;5009988;28;20032;-87
2023/07/13 14:32:19;;;;;;;2.80;1.30;;;;;;;;;;4984549;28;20025;-86
2023/07/13 14:34:45;;;;;;;4.63;1.15;;;;;;;;;;4996384;28;20116;-86
2023/07/13 14:37:15;;;;;;;1.98;0.85;;;;;;;;;;4990090;28;20022;-85
2023/07/13 14:39:44;;;;;;;1.90;1.20;;;;;;;;;;4991700;28;20019;-86
2023/07/13 14:42:10;;;;;;;2.40;1.00;;;;;;;;;;5001142;28;20029;-87
2023/07/13 14:44:35;;;;;;;1.55;0.90;;;;;;;;;;4973557;28;20033;-87
2023/07/13 14:47:04;;;;;;;1.60;0.95;;;;;;;;;;4993346;28;20031;-86
2023/07/13 14:49:32;;;;;;;3.03;1.00;;;;;;;;;;4986082;28;20131;-87
2023/07/13 14:52:00;;;;;;;3.17;0.88;;;;;;;;;;4986872;28;20078;-87
2023/07/13 14:54:26;;;;;;;1.20;0.95;;;;;;;;;;5004018;28;20022;-87
2023/07/13 14:56:51;;;;;;;2.83;1.35;;;;;;;;;;4989276;28;20037;-86
2023/07/13 14:59:18;;;;;;;1.08;1.00;;;;;;;;;;5007566;28;20056;-87
2023/07/13 15:01:45;;;;;;;4.03;1.15;;;;;;;;;;4997972;28;20025;-86